Time;durP1;ratioP1;P1;durP2;ratioP2;P2;SDS_P1;SDS_P2;PMS_P1;PMS_P2;Temp;Humidity;BMP_temperature;BMP_pressure;BME280_temperature;BME280_humidity;BME280_pressure;Samples;Min_cycle;Max_cycle;Signal;HPM_P1;HPM_P2
2024/04/18 00:00:28;;;;;;;2.15;1.00;;;4.50;99.90;;;;;;6466382;22;20005;-85
2024/04/18 00:02:54;;;;;;;3.13;1.20;;;3.40;99.90;;;;;;6469065;22;20010;-85
2024/04/18 00:05:22;;;;;;;1.95;1.38;;;3.30;99.90;;;;;;6467495;22;20310;-85
2024/04/18 00:07:48;;;;;;;3.28;1.00;;;3.20;99.90;;;;;;6464560;22;20081;-85
2024/04/18 00:10:14;;;;;;;3.60;1.60;;;3.20;99.90;;;;;;6508464;21;20381;-85
2024/04/18 00:12:40;;;;;;;6.00;1.73;;;3.90;99.90;;;;;;6510155;22;20016;-85
2024/04/18 00:15:09;;;;;;;6.00;1.67;;;3.30;99.90;;;;;;6508185;22;20348;-85
2024/04/18 00:17:36;;;;;;;2.38;1.30;;;3.30;99.90;;;;;;6465973;22;20002;-85
2024/04/18 00:20:02;;;;;;;6.25;1.50;;;3.30;99.90;;;;;;6466938;22;20018;-85
2024/04/18 00:22:28;;;;;;;3.30;2.08;;;3.30;99.90;;;;;;6467814;22;20603;-85
2024/04/18 00:24:54;;;;;;;6.35;1.63;;;3.30;99.90;;;;;;6471150;22;20002;-84
2024/04/18 00:27:22;;;;;;;4.03;1.38;;;3.30;99.90;;;;;;6469253;22;20659;-85
2024/04/18 00:29:48;;;;;;;5.70;2.00;;;3.30;99.90;;;;;;6511834;21;20017;-85
2024/04/18 00:32:14;;;;;;;2.78;1.88;;;3.30;99.90;;;;;;6470670;22;20002;-85
2024/04/18 00:34:40;;;;;;;4.13;1.70;;;3.30;99.90;;;;;;6467976;22;20097;-85
2024/04/18 00:37:06;;;;;;;5.68;2.10;;;3.30;99.90;;;;;;6511353;22;20006;-85
2024/04/18 00:39:33;;;;;;;4.10;2.00;;;3.20;99.90;;;;;;6468702;22;20016;-85
2024/04/18 00:42:02;;;;;;;6.95;1.75;;;3.20;99.90;;;;;;6468771;22;20372;-85
2024/04/18 00:44:28;;;;;;;2.63;1.45;;;3.20;99.90;;;;;;6469265;22;20006;-85
2024/04/18 00:46:55;;;;;;;5.55;2.00;;;3.20;99.90;;;;;;6510771;22;20084;-85
2024/04/18 00:49:21;;;;;;;3.42;1.67;;;3.10;99.90;;;;;;6468766;22;20006;-85
2024/04/18 00:52:11;;;;;;;4.93;1.85;;;3.20;99.90;;;;;;6434989;22;20318;-85
2024/04/18 00:54:37;;;;;;;3.90;1.85;;;3.10;99.90;;;;;;6469034;22;20012;-84
2024/04/18 00:57:13;;;;;;;3.65;1.65;;;3.80;99.90;;;;;;6506748;22;20013;-85
2024/04/18 00:59:39;;;;;;;5.20;2.15;;;3.10;99.90;;;;;;6470344;22;20013;-84
2024/04/18 01:02:05;;;;;;;5.00;2.25;;;3.10;99.90;;;;;;6468529;22;20014;-85
2024/04/18 01:04:31;;;;;;;6.45;1.75;;;3.10;99.90;;;;;;6470813;22;20006;-85
2024/04/18 01:06:57;;;;;;;5.55;1.70;;;3.10;99.90;;;;;;6469362;22;20110;-85
2024/04/18 01:09:22;;;;;;;5.57;2.00;;;3.00;99.90;;;;;;6469858;22;20310;-85
2024/04/18 01:11:48;;;;;;;5.25;2.17;;;3.10;99.90;;;;;;6471130;22;20006;-85
2024/04/18 01:14:16;;;;;;;4.07;1.88;;;3.50;99.90;;;;;;6508778;22;20032;-86
2024/04/18 01:16:42;;;;;;;6.28;2.05;;;3.70;99.90;;;;;;6511118;22;20005;-85
2024/04/18 01:19:18;;;;;;;4.22;2.22;;;3.10;99.90;;;;;;6467559;22;20020;-85
2024/04/18 01:21:44;;;;;;;;;;;3.10;99.90;;;;;;6470941;22;20001;-85
2024/04/18 01:24:13;;;;;;;4.65;1.55;;;3.10;99.90;;;;;;6512357;22;20720;-84
2024/04/18 01:26:42;;;;;;;4.40;1.88;;;3.10;99.90;;;;;;6471121;22;20002;-84
2024/04/18 01:29:10;;;;;;;2.50;1.80;;;3.10;99.90;;;;;;6510351;21;20088;-85
2024/04/18 01:31:36;;;;;;;8.00;3.20;;;3.10;99.90;;;;;;6468362;22;20013;-85
2024/04/18 01:34:01;;;;;;;5.43;2.28;;;3.10;99.90;;;;;;6470147;22;20002;-85
2024/04/18 01:36:27;;;;;;;5.45;2.17;;;3.10;99.90;;;;;;6506443;22;19998;-85
2024/04/18 01:38:53;;;;;;;6.20;1.70;;;3.10;99.90;;;;;;6508040;21;20016;-85
2024/04/18 01:41:21;;;;;;;4.38;1.67;;;3.10;99.90;;;;;;6508700;22;20014;-85
2024/04/18 01:43:46;;;;;;;3.35;1.73;;;3.10;99.90;;;;;;6470271;22;20049;-85
2024/04/18 01:46:12;;;;;;;7.07;1.80;;;3.10;99.90;;;;;;6510818;22;20009;-85
2024/04/18 01:48:38;;;;;;;5.40;2.30;;;3.20;99.90;;;;;;6508425;21;20013;-85
2024/04/18 01:51:04;;;;;;;6.13;2.05;;;3.10;99.90;;;;;;6509367;22;20033;-85
2024/04/18 01:53:30;;;;;;;2.58;1.80;;;3.10;99.90;;;;;;6469568;22;20144;-85
2024/04/18 01:55:56;;;;;;;5.97;2.03;;;3.00;99.90;;;;;;6509923;22;20017;-85
2024/04/18 01:58:22;;;;;;;4.13;1.90;;;3.10;99.90;;;;;;6510727;22;20021;-85
2024/04/18 02:00:48;;;;;;;7.30;2.15;;;2.90;99.90;;;;;;6510232;22;20002;-85
2024/04/18 02:03:14;;;;;;;5.10;2.15;;;3.00;99.90;;;;;;6470994;22;20002;-85
2024/04/18 02:05:40;;;;;;;6.07;1.83;;;3.00;99.90;;;;;;6512129;22;20773;-85
2024/04/18 02:08:05;;;;;;;4.35;1.50;;;3.00;99.90;;;;;;6509886;22;20073;-84
2024/04/18 02:10:31;;;;;;;5.93;2.40;;;3.00;99.90;;;;;;6470517;22;20380;-85
2024/04/18 02:12:57;;;;;;;4.13;1.40;;;2.90;99.90;;;;;;6510521;22;20006;-85
2024/04/18 02:15:24;;;;;;;4.50;1.98;;;2.80;99.90;;;;;;6469785;22;20080;-85
2024/04/18 02:17:49;;;;;;;6.30;1.67;;;2.90;99.90;;;;;;6510235;22;20013;-84
2024/04/18 02:20:15;;;;;;;4.88;1.98;;;3.10;99.90;;;;;;6469819;22;20009;-85
2024/04/18 02:22:41;;;;;;;2.55;1.42;;;3.40;99.90;;;;;;6469605;22;20057;-85
2024/04/18 02:25:10;;;;;;;3.72;1.60;;;2.80;99.90;;;;;;6469849;22;20006;-85
2024/04/18 02:27:37;;;;;;;5.72;2.30;;;2.80;99.90;;;;;;6509656;22;20040;-84
2024/04/18 02:30:07;;;;;;;5.57;1.90;;;2.80;99.90;;;;;;6468895;22;20013;-84
2024/04/18 02:32:33;;;;;;;3.45;1.75;;;2.80;99.90;;;;;;6469767;22;20328;-85
2024/04/18 02:34:59;;;;;;;6.65;1.65;;;2.90;99.90;;;;;;6426421;22;20017;-85
2024/04/18 02:37:25;;;;;;;5.65;2.60;;;2.80;99.90;;;;;;6470134;22;20739;-84
2024/04/18 02:39:51;;;;;;;2.88;1.42;;;2.80;99.90;;;;;;6466871;22;20010;-84
2024/04/18 02:42:17;;;;;;;4.13;1.70;;;2.70;99.90;;;;;;6465841;22;20002;-84
2024/04/18 02:44:43;;;;;;;5.00;1.85;;;2.70;99.90;;;;;;6468938;22;20058;-85
2024/04/18 02:47:12;;;;;;;3.83;1.48;;;2.70;99.90;;;;;;6469263;22;20013;-84
2024/04/18 02:49:38;;;;;;;2.50;1.50;;;2.70;99.90;;;;;;6510291;21;20076;-84
2024/04/18 02:52:04;;;;;;;2.42;1.38;;;2.70;99.90;;;;;;6469088;22;20017;-84
2024/04/18 02:54:30;;;;;;;1.63;1.30;;;2.70;99.90;;;;;;6469965;22;20006;-84
2024/04/18 02:56:56;;;;;;;3.83;1.63;;;2.60;99.90;;;;;;6509403;22;20460;-84
2024/04/18 02:59:22;;;;;;;3.47;1.73;;;2.70;99.90;;;;;;6469107;22;20014;-85
2024/04/18 03:01:48;;;;;;;5.30;1.58;;;2.60;99.90;;;;;;6510903;22;20017;-85
2024/04/18 03:04:14;;;;;;;3.08;1.38;;;2.50;99.90;;;;;;6468551;22;20005;-85
2024/04/18 03:06:40;;;;;;;2.60;1.20;;;2.50;99.90;;;;;;6468780;22;20017;-85
2024/04/18 03:09:05;;;;;;;4.90;1.40;;;2.50;99.90;;;;;;6468798;22;20009;-84
2024/04/18 03:11:36;;;;;;;5.32;1.30;;;2.50;99.90;;;;;;6468362;22;20005;-85
2024/04/18 03:14:02;;;;;;;2.15;1.08;;;2.50;99.90;;;;;;6468787;22;20299;-84
2024/04/18 03:16:29;;;;;;;5.03;1.35;;;2.40;99.90;;;;;;6467711;22;20018;-84
2024/04/18 03:19:15;;;;;;;4.18;1.38;;;2.40;99.90;;;;;;6465193;22;20054;-84
2024/04/18 03:21:40;;;;;;;4.20;1.38;;;2.40;99.90;;;;;;6469719;22;20009;-85
2024/04/18 03:24:19;;;;;;;1.50;1.10;;;2.40;99.90;;;;;;6470774;22;20010;-84
2024/04/18 03:26:45;;;;;;;3.63;1.33;;;2.60;99.90;;;;;;6470865;22;20623;-84
2024/04/18 03:29:31;;;;;;;2.90;1.38;;;2.30;99.90;;;;;;6433401;22;19998;-84
2024/04/18 03:31:57;;;;;;;5.30;1.48;;;2.30;99.90;;;;;;6468740;22;20005;-84
2024/04/18 03:34:23;;;;;;;3.70;2.03;;;2.30;99.90;;;;;;6469522;22;20002;-84
2024/04/18 03:36:51;;;;;;;3.15;1.30;;;2.90;99.90;;;;;;6470308;22;20001;-85
2024/04/18 03:39:20;;;;;;;6.18;1.52;;;2.40;99.90;;;;;;6508583;21;20420;-84
2024/04/18 03:41:47;;;;;;;3.03;1.50;;;2.30;99.90;;;;;;6468274;22;20038;-84
2024/04/18 03:44:14;;;;;;;2.65;1.08;;;2.30;99.90;;;;;;6470194;22;20452;-85
2024/04/18 03:47:00;;;;;;;;;;;2.30;99.90;;;;;;6468756;22;20002;-84
2024/04/18 03:49:28;;;;;;;2.78;1.20;;;2.30;99.90;;;;;;6508148;21;19923;-84
2024/04/18 03:52:12;;;;;;;3.75;1.33;;;2.20;99.90;;;;;;6469485;22;20014;-84
2024/04/18 03:54:37;;;;;;;2.22;1.23;;;2.30;99.90;;;;;;6466431;22;20076;-84
2024/04/18 03:57:23;;;;;;;2.78;1.30;;;2.30;99.90;;;;;;6504094;22;20010;-84
2024/04/18 03:59:49;;;;;;;3.72;1.50;;;2.30;99.90;;;;;;6508195;21;20049;-85
2024/04/18 04:02:14;;;;;;;3.22;1.35;;;2.30;99.90;;;;;;6469652;22;20089;-84
2024/04/18 04:04:50;;;;;;;2.80;1.02;;;2.20;99.90;;;;;;6469454;22;20002;-84
2024/04/18 04:07:16;;;;;;;8.88;1.50;;;2.20;99.90;;;;;;6467956;22;20002;-84
2024/04/18 04:10:02;;;;;;;2.42;1.65;;;2.20;99.90;;;;;;6465807;22;20391;-84
2024/04/18 04:12:28;;;;;;;3.55;1.40;;;2.20;99.90;;;;;;6469201;22;20002;-84
2024/04/18 04:14:54;;;;;;;6.80;1.77;;;2.30;99.90;;;;;;6510890;22;20080;-85
2024/04/18 04:17:45;;;;;;;4.97;1.60;;;3.00;99.90;;;;;;6467014;22;20384;-85
2024/04/18 04:20:10;;;;;;;4.75;1.15;;;2.30;99.90;;;;;;6508916;21;20047;-84
2024/04/18 04:22:36;;;;;;;4.75;1.40;;;2.30;99.90;;;;;;6468930;22;20006;-85
2024/04/18 04:25:02;;;;;;;3.17;1.35;;;2.40;99.90;;;;;;6510022;22;20014;-85
2024/04/18 04:27:46;;;;;;;3.35;1.42;;;2.40;99.90;;;;;;6469869;22;20018;-85
2024/04/18 04:30:12;;;;;;;3.22;1.38;;;2.40;99.90;;;;;;6470448;22;20313;-84
2024/04/18 04:32:38;;;;;;;4.53;1.20;;;2.40;99.90;;;;;;6470726;22;20057;-83
2024/04/18 04:35:04;;;;;;;3.05;1.30;;;2.40;99.90;;;;;;6472387;22;20013;-84
2024/04/18 04:37:29;;;;;;;3.60;1.38;;;2.40;99.90;;;;;;6472019;22;20079;-83
2024/04/18 04:39:55;;;;;;;3.83;1.55;;;2.40;99.90;;;;;;6510966;21;20044;-83
2024/04/18 04:42:21;;;;;;;5.70;1.27;;;2.40;99.90;;;;;;6510706;22;20295;-84
2024/04/18 04:44:52;;;;;;;4.10;1.38;;;2.40;99.90;;;;;;6469013;22;20002;-85
2024/04/18 04:47:23;;;;;;;;;;;2.50;99.90;;;;;;6470031;22;20017;-84
2024/04/18 04:49:49;;;;;;;5.90;1.10;;;2.60;99.90;;;;;;6468389;22;20308;-86
2024/04/18 04:52:15;;;;;;;4.30;1.00;;;2.60;99.90;;;;;;6466375;22;20428;-84
2024/04/18 04:54:42;;;;;;;2.03;0.85;;;2.60;99.90;;;;;;6474073;22;20017;-84
2024/04/18 04:57:10;;;;;;;2.78;1.30;;;3.60;99.90;;;;;;6468273;22;20005;-84
2024/04/18 04:59:36;;;;;;;2.83;1.20;;;2.80;99.90;;;;;;6510308;21;20016;-84
2024/04/18 05:02:03;;;;;;;1.95;0.75;;;3.00;99.90;;;;;;6470291;22;20006;-84
2024/04/18 05:04:29;;;;;;;2.40;1.00;;;3.60;99.90;;;;;;6470554;22;20017;-84
2024/04/18 05:06:55;;;;;;;2.13;1.05;;;4.30;99.90;;;;;;6471718;22;20006;-84
2024/04/18 05:09:21;;;;;;;2.22;1.10;;;5.20;99.90;;;;;;6473240;22;20029;-83
2024/04/18 05:11:48;;;;;;;6.15;1.38;;;6.30;99.90;;;;;;6515222;22;20038;-84
2024/04/18 05:14:16;;;;;;;2.63;0.60;;;7.60;99.90;;;;;;6470757;22;20021;-84
2024/04/18 05:16:42;;;;;;;2.08;0.60;;;8.90;99.90;;;;;;6474075;22;20005;-84
2024/04/18 05:19:08;;;;;;;1.90;0.43;;;10.20;99.90;;;;;;6472347;22;20006;-84
2024/04/18 05:21:34;;;;;;;3.72;1.13;;;11.40;99.90;;;;;;6472485;22;20380;-85
2024/04/18 05:23:59;;;;;;;2.15;0.88;;;12.30;99.90;;;;;;6513408;22;20041;-84
2024/04/18 05:26:32;;;;;;;3.17;0.63;;;13.30;99.90;;;;;;6514485;22;20014;-85
2024/04/18 05:31:47;;;;;;;1.63;0.50;;;15.00;99.90;;;;;;6471188;22;20017;-84
2024/04/18 05:34:13;;;;;;;2.33;0.55;;;16.10;99.90;;;;;;6470950;22;20433;-85
2024/04/18 05:36:39;;;;;;;1.40;0.47;;;17.00;99.90;;;;;;6512414;22;20006;-84
2024/04/18 05:39:05;;;;;;;3.53;0.80;;;17.40;99.90;;;;;;6471549;22;20006;-87
2024/04/18 05:41:32;;;;;;;3.40;0.70;;;17.80;99.90;;;;;;6471481;22;20046;-83
2024/04/18 05:43:58;;;;;;;1.48;0.50;;;17.90;99.90;;;;;;6511431;22;20329;-85
2024/04/18 05:46:24;;;;;;;3.13;0.60;;;18.30;99.90;;;;;;6472340;22;20014;-84
2024/04/18 05:48:51;;;;;;;3.00;0.80;;;18.70;99.90;;;;;;6471362;22;19998;-84
2024/04/18 05:51:16;;;;;;;2.55;0.73;;;19.30;99.50;;;;;;6425043;22;20012;-85
2024/04/18 05:53:43;;;;;;;1.15;0.50;;;19.80;98.90;;;;;;6469993;22;20002;-85
2024/04/18 05:56:10;;;;;;;1.90;0.70;;;20.50;98.10;;;;;;6471421;22;20042;-85
2024/04/18 05:58:37;;;;;;;1.38;0.50;;;20.60;96.30;;;;;;6472424;22;20021;-84
2024/04/18 06:01:06;;;;;;;5.25;0.70;;;21.10;96.20;;;;;;6507566;22;20005;-84
2024/04/18 06:03:33;;;;;;;4.15;1.20;;;21.70;95.40;;;;;;6507974;22;20403;-85
2024/04/18 06:09:24;;;;;;;1.48;0.60;;;22.50;90.60;;;;;;6464631;22;20359;-84
2024/04/18 06:11:50;;;;;;;2.45;0.60;;;22.80;92.60;;;;;;6506679;22;20006;-84
2024/04/18 06:14:16;;;;;;;2.50;0.60;;;23.20;92.30;;;;;;6463437;22;20016;-85
2024/04/18 06:16:42;;;;;;;4.32;0.93;;;23.50;91.40;;;;;;6507860;22;20056;-85
2024/04/18 06:19:07;;;;;;;2.28;0.80;;;23.40;90.50;;;;;;6468569;22;20002;-86
2024/04/18 06:21:34;;;;;;;2.42;0.70;;;22.70;90.00;;;;;;6511317;22;20058;-87
2024/04/18 06:24:00;;;;;;;1.55;0.90;;;21.80;90.50;;;;;;6471199;22;20021;-85
2024/04/18 06:26:25;;;;;;;1.45;0.50;;;20.70;91.00;;;;;;6471108;22;20006;-86
2024/04/18 06:28:51;;;;;;;3.95;0.82;;;19.70;91.60;;;;;;6471880;22;20013;-85
2024/04/18 06:31:18;;;;;;;2.03;0.90;;;19.00;92.10;;;;;;6468021;22;20035;-84
2024/04/18 06:33:45;;;;;;;3.92;1.15;;;18.90;92.40;;;;;;6471460;22;20014;-85
2024/04/18 06:36:11;;;;;;;3.92;1.02;;;17.80;92.60;;;;;;6510740;22;20076;-84
2024/04/18 06:38:38;;;;;;;2.80;0.80;;;17.60;93.80;;;;;;6470764;22;20018;-85
2024/04/18 06:41:04;;;;;;;2.13;0.57;;;17.70;93.90;;;;;;6471111;22;20313;-84
2024/04/18 06:43:30;;;;;;;2.45;0.80;;;17.30;94.00;;;;;;6471980;22;20002;-86
2024/04/18 06:45:56;;;;;;;1.73;0.52;;;17.20;94.20;;;;;;6512753;22;20464;-85
2024/04/18 06:48:23;;;;;;;3.53;0.82;;;16.80;94.40;;;;;;6472292;22;20002;-85
2024/04/18 06:50:49;;;;;;;2.45;0.60;;;16.80;94.70;;;;;;6468795;22;20093;-85
2024/04/18 06:53:14;;;;;;;2.67;0.80;;;16.90;95.00;;;;;;6513413;22;20013;-85
2024/04/18 06:55:40;;;;;;;5.00;0.70;;;17.00;95.30;;;;;;6473217;22;20158;-85
2024/04/18 06:58:06;;;;;;;3.80;0.70;;;16.40;95.30;;;;;;6513686;22;20014;-86
2024/04/18 07:00:32;;;;;;;2.20;0.57;;;16.00;95.30;;;;;;6470554;22;20006;-86
2024/04/18 07:02:59;;;;;;;4.80;0.70;;;15.60;95.40;;;;;;6427507;22;20001;-86
2024/04/18 07:05:26;;;;;;;2.10;0.50;;;15.10;95.90;;;;;;6469527;22;20041;-85
2024/04/18 07:07:53;;;;;;;3.85;0.70;;;14.70;96.40;;;;;;6512514;22;20013;-85
2024/04/18 07:10:19;;;;;;;4.15;0.55;;;14.30;96.60;;;;;;6468080;22;20005;-86
2024/04/18 07:12:44;;;;;;;1.80;0.47;;;13.70;97.60;;;;;;6471401;22;20012;-85
2024/04/18 07:15:10;;;;;;;2.53;0.77;;;13.40;98.50;;;;;;6470753;22;20417;-86
2024/04/18 07:17:36;;;;;;;4.07;0.68;;;13.10;99.30;;;;;;6470286;22;20610;-86
2024/04/18 07:20:02;;;;;;;1.67;0.52;;;12.90;99.60;;;;;;6468951;22;20413;-87
2024/04/18 07:22:28;;;;;;;2.17;0.98;;;12.80;99.90;;;;;;6470219;22;20013;-85
2024/04/18 07:24:53;;;;;;;3.33;0.52;;;12.90;99.90;;;;;;6511792;22;20002;-85
2024/04/18 07:27:19;;;;;;;2.30;0.60;;;13.10;99.90;;;;;;6470256;22;20006;-85
2024/04/18 07:29:45;;;;;;;1.67;0.30;;;13.30;99.90;;;;;;6466683;22;20080;-85
2024/04/18 07:32:10;;;;;;;3.38;0.60;;;13.60;99.90;;;;;;6468474;22;20002;-86
2024/04/18 07:34:36;;;;;;;1.98;0.80;;;13.80;99.90;;;;;;6471835;22;20424;-85
2024/04/18 07:37:02;;;;;;;1.48;0.85;;;13.90;99.90;;;;;;6470634;22;20494;-85
2024/04/18 07:39:28;;;;;;;4.65;0.90;;;14.20;99.90;;;;;;6468696;22;20080;-85
2024/04/18 07:41:54;;;;;;;7.15;0.70;;;14.10;99.90;;;;;;6511178;22;20413;-85
2024/04/18 07:44:19;;;;;;;5.50;0.95;;;14.10;99.90;;;;;;6471501;22;20010;-85
2024/04/18 07:46:47;;;;;;;5.70;1.33;;;14.00;99.90;;;;;;6465981;22;20324;-86
2024/04/18 07:49:14;;;;;;;1.77;0.40;;;14.70;99.90;;;;;;6509122;21;20002;-85
2024/04/18 07:51:41;;;;;;;2.40;0.52;;;14.30;99.90;;;;;;6467842;22;20421;-85
2024/04/18 07:54:07;;;;;;;2.13;0.60;;;14.60;99.90;;;;;;6510542;22;20480;-85
2024/04/18 07:56:33;;;;;;;2.80;0.55;;;14.90;99.90;;;;;;6509586;22;20020;-85
2024/04/18 07:58:58;;;;;;;5.72;0.70;;;14.80;99.90;;;;;;6469080;22;20006;-85
2024/04/18 08:01:24;;;;;;;3.70;0.57;;;15.10;99.90;;;;;;6467416;22;20013;-85
2024/04/18 08:03:50;;;;;;;1.15;0.38;;;15.10;99.90;;;;;;6466515;22;20710;-85
2024/04/18 08:06:15;;;;;;;2.50;0.52;;;14.90;99.90;;;;;;6469017;22;20077;-85
2024/04/18 08:08:41;;;;;;;3.13;0.40;;;15.10;99.80;;;;;;6466166;22;20006;-86
2024/04/18 08:11:09;;;;;;;1.98;0.30;;;15.10;99.90;;;;;;6465583;22;20002;-86
2024/04/18 08:13:36;;;;;;;3.10;0.40;;;15.50;99.90;;;;;;6467193;22;20072;-85
2024/04/18 08:16:02;;;;;;;1.77;0.50;;;16.40;99.90;;;;;;6466289;22;20335;-86
2024/04/18 08:18:30;;;;;;;3.63;0.77;;;16.00;99.90;;;;;;6467958;22;20016;-86
2024/04/18 08:20:57;;;;;;;1.80;0.40;;;16.30;99.90;;;;;;6507112;22;20309;-86
2024/04/18 08:23:23;;;;;;;3.95;0.38;;;15.80;99.40;;;;;;6464847;22;20006;-86
2024/04/18 08:25:50;;;;;;;2.28;0.40;;;15.80;99.80;;;;;;6509459;22;20076;-85
2024/04/18 08:28:16;;;;;;;3.17;0.60;;;15.40;99.70;;;;;;6509028;22;20006;-86
2024/04/18 08:30:44;;;;;;;3.17;0.43;;;15.70;99.90;;;;;;6505630;22;20002;-86
2024/04/18 08:33:10;;;;;;;3.67;0.47;;;14.90;99.80;;;;;;6509813;22;20013;-87
2024/04/18 08:35:35;;;;;;;5.30;0.50;;;14.40;99.50;;;;;;6469473;22;20005;-86
2024/04/18 08:38:01;;;;;;;2.05;0.40;;;14.10;99.70;;;;;;6469000;22;20514;-85
2024/04/18 08:40:27;;;;;;;3.58;0.82;;;14.10;99.90;;;;;;6467724;22;20037;-86
2024/04/18 08:42:53;;;;;;;3.15;0.70;;;14.40;99.90;;;;;;6470274;22;20333;-86
2024/04/18 08:45:24;;;;;;;3.65;0.40;;;14.70;99.90;;;;;;6473195;22;20010;-85
2024/04/18 08:47:51;;;;;;;2.75;0.60;;;15.30;99.90;;;;;;6473573;22;20010;-85
2024/04/18 08:50:20;;;;;;;2.75;0.50;;;15.60;99.80;;;;;;6513495;21;20026;-85
2024/04/18 08:52:46;;;;;;;3.20;0.82;;;15.50;99.40;;;;;;6472789;22;20006;-84
2024/04/18 08:55:12;;;;;;;4.32;0.80;;;15.70;99.90;;;;;;6470738;22;20386;-85
2024/04/18 08:57:55;;;;;;;3.00;0.50;;;15.80;98.80;;;;;;6471728;22;20006;-85
2024/04/18 09:00:20;;;;;;;3.97;0.70;;;16.30;98.50;;;;;;6511181;21;20016;-85
2024/04/18 09:02:47;;;;;;;3.50;0.50;;;16.30;99.10;;;;;;6512219;22;20333;-85
2024/04/18 09:05:13;;;;;;;4.55;0.35;;;15.70;98.10;;;;;;6471119;22;20010;-85
2024/04/18 09:07:39;;;;;;;3.00;0.70;;;15.30;97.80;;;;;;6470909;22;20018;-85
2024/04/18 09:10:09;;;;;;;5.70;0.55;;;15.30;98.20;;;;;;6470917;22;20005;-86
2024/04/18 09:12:35;;;;;;;3.20;0.35;;;14.50;98.30;;;;;;6512172;22;20021;-85
2024/04/18 09:15:01;;;;;;;2.35;0.20;;;14.50;98.30;;;;;;6471683;22;20020;-86
2024/04/18 09:17:42;;;;;;;1.98;0.30;;;15.70;99.40;;;;;;6513320;22;20005;-86
2024/04/18 09:20:09;;;;;;;1.20;0.30;;;15.00;99.90;;;;;;6511605;21;20033;-85
2024/04/18 09:26:16;;;;;;;2.13;0.30;;;15.00;99.70;;;;;;6477426;22;20012;-86
2024/04/18 09:29:32;;;;;;;2.30;0.30;;;14.40;99.90;;;;;;6471993;22;20127;-86
2024/04/18 09:32:43;;;;;;;2.42;0.60;;;14.30;99.90;;;;;;6426353;22;20430;-85
2024/04/18 09:35:31;;;;;;;2.20;0.63;;;14.10;99.90;;;;;;6313008;22;20476;-86
2024/04/18 09:42:26;;;;;;;2.72;0.30;;;14.00;99.70;;;;;;6476228;22;20017;-86
2024/04/18 09:45:03;;;;;;;2.72;0.47;;;13.80;99.70;;;;;;6473794;22;20013;-86
2024/04/18 09:47:32;;;;;;;4.18;0.50;;;13.70;99.90;;;;;;6515058;22;20006;-85
2024/04/18 09:50:02;;;;;;;1.88;0.30;;;13.80;99.90;;;;;;6508955;21;20654;-86
2024/04/18 09:52:47;;;;;;;2.25;0.43;;;13.80;98.70;;;;;;6470741;22;20631;-86
2024/04/18 09:55:15;;;;;;;5.13;0.40;;;14.20;99.90;;;;;;6512178;22;20056;-85
2024/04/18 09:57:43;;;;;;;3.92;0.38;;;14.60;99.90;;;;;;6514711;22;20039;-87
2024/04/18 10:00:14;;;;;;;2.60;0.40;;;14.70;99.70;;;;;;6512548;21;20061;-86
2024/04/18 10:03:09;;;;;;;2.95;0.45;;;14.80;99.40;;;;;;6468957;22;20076;-85
2024/04/18 10:09:23;;;;;;;2.92;0.38;;;15.00;99.30;;;;;;6476861;22;20842;-85
2024/04/18 10:12:40;;;;;;;2.55;0.43;;;15.10;99.00;;;;;;6472387;22;20006;-85
2024/04/18 10:15:07;;;;;;;4.25;1.38;;;14.50;99.20;;;;;;6489510;22;20520;-85
2024/04/18 10:24:57;;;;;;;4.40;0.65;;;13.70;99.90;;;;;;6383598;22;19996;-86
2024/04/18 10:35:17;;;;;;;1.40;0.50;;;13.60;99.90;;;;;;6476528;22;20045;-88
2024/04/18 10:38:12;;;;;;;4.97;0.77;;;14.40;99.90;;;;;;6472770;22;20010;-86
2024/04/18 10:41:02;;;;;;;4.63;0.68;;;14.10;99.90;;;;;;6512746;22;19994;-86
2024/04/18 10:43:58;;;;;;;4.05;0.55;;;13.90;99.60;;;;;;6511907;22;20012;-86
2024/04/18 10:47:11;;;;;;;4.47;0.68;;;13.70;99.50;;;;;;6514435;22;20084;-86
2024/04/18 10:49:38;;;;;;;5.18;0.50;;;13.50;99.40;;;;;;6512712;21;20012;-86
2024/04/18 10:52:10;;;;;;;4.65;0.98;;;13.20;99.90;;;;;;6472408;22;20006;-87
2024/04/18 10:54:38;;;;;;;9.70;1.15;;;12.90;99.90;;;;;;6472369;22;20010;-86
2024/04/18 10:57:06;;;;;;;3.97;0.70;;;12.60;99.90;;;;;;6467812;22;20002;-86
2024/04/18 10:59:38;;;;;;;3.70;0.60;;;12.30;99.90;;;;;;6512414;21;20005;-84
2024/04/18 11:02:07;;;;;;;6.18;0.80;;;12.10;99.90;;;;;;6471572;22;20017;-85
2024/04/18 11:04:34;;;;;;;3.67;0.57;;;12.00;99.90;;;;;;6512460;22;20016;-84
2024/04/18 11:07:00;;;;;;;3.83;0.50;;;12.00;99.90;;;;;;6470493;22;20006;-85
2024/04/18 11:09:26;;;;;;;4.00;0.70;;;11.70;99.90;;;;;;6513374;21;20023;-84
2024/04/18 11:11:52;;;;;;;4.75;0.60;;;11.70;99.90;;;;;;6472195;22;20005;-84
2024/04/18 11:14:21;;;;;;;2.60;0.60;;;11.60;99.90;;;;;;6513474;22;20623;-85
2024/04/18 11:16:54;;;;;;;4.43;0.70;;;11.70;99.90;;;;;;6514062;22;20600;-85
2024/04/18 11:19:21;;;;;;;3.45;0.60;;;11.90;99.90;;;;;;6470527;22;20006;-85
2024/04/18 11:21:48;;;;;;;1.42;0.45;;;12.30;99.90;;;;;;6470432;22;20005;-85
2024/04/18 11:24:17;;;;;;;5.63;0.70;;;12.80;99.90;;;;;;6470912;22;20012;-85
2024/04/18 11:26:43;;;;;;;3.35;0.70;;;13.00;99.90;;;;;;6472887;22;20001;-85
2024/04/18 11:29:09;;;;;;;4.78;0.73;;;13.20;99.90;;;;;;6471890;22;20101;-85
2024/04/18 11:31:34;;;;;;;4.40;0.55;;;13.90;99.90;;;;;;6471333;22;20001;-85
2024/04/18 11:34:00;;;;;;;3.22;0.50;;;13.30;99.90;;;;;;6473056;22;20006;-85
2024/04/18 11:36:27;;;;;;;4.57;0.43;;;13.40;99.90;;;;;;6512377;22;20437;-85
2024/04/18 11:39:00;;;;;;;5.47;1.13;;;13.60;99.90;;;;;;6471397;22;20014;-85
2024/04/18 11:41:30;;;;;;;6.10;0.60;;;13.30;99.90;;;;;;6471544;22;20006;-85
2024/04/18 11:43:56;;;;;;;3.50;0.60;;;13.90;99.90;;;;;;6472534;22;20010;-85
2024/04/18 11:46:23;;;;;;;5.32;0.70;;;14.00;99.90;;;;;;6471505;22;20006;-85
2024/04/18 11:48:48;;;;;;;5.95;0.85;;;14.40;99.90;;;;;;6470580;22;20010;-85
2024/04/18 11:51:15;;;;;;;3.05;0.50;;;14.20;99.90;;;;;;6472187;22;20101;-85
2024/04/18 11:53:41;;;;;;;3.60;0.43;;;14.60;99.90;;;;;;6469967;22;20006;-84
2024/04/18 11:56:08;;;;;;;2.45;0.57;;;15.00;99.90;;;;;;6472762;22;20017;-86
2024/04/18 11:58:34;;;;;;;4.40;0.52;;;14.70;99.90;;;;;;6470540;22;20017;-85
2024/04/18 12:01:00;;;;;;;5.32;0.43;;;14.10;99.90;;;;;;6469994;22;20005;-85
2024/04/18 12:03:27;;;;;;;4.47;0.40;;;14.30;99.90;;;;;;6513690;22;20002;-85
2024/04/18 12:05:53;;;;;;;2.28;0.65;;;13.60;99.90;;;;;;6514655;22;20072;-85
2024/04/18 12:08:18;;;;;;;4.20;0.75;;;14.60;99.90;;;;;;6472425;22;20080;-84
2024/04/18 12:10:44;;;;;;;4.80;0.73;;;13.10;99.90;;;;;;6471958;22;20449;-85
2024/04/18 12:13:10;;;;;;;4.10;0.77;;;14.20;99.90;;;;;;6472258;22;20006;-85
2024/04/18 12:18:58;;;;;;;3.72;0.60;;;13.10;99.90;;;;;;6477909;22;20501;-87
2024/04/18 12:21:24;;;;;;;4.82;0.73;;;13.20;99.90;;;;;;6471442;22;20017;-85
2024/04/18 12:23:49;;;;;;;5.70;0.98;;;12.90;99.90;;;;;;6474414;22;20018;-86
2024/04/18 12:26:15;;;;;;;3.88;0.70;;;12.50;99.90;;;;;;6470349;22;20017;-86
2024/04/18 12:28:42;;;;;;;4.78;0.63;;;12.50;99.90;;;;;;6514936;21;20013;-86
2024/04/18 12:31:09;;;;;;;6.15;0.77;;;12.50;99.90;;;;;;6470501;22;20001;-85
2024/04/18 12:33:36;;;;;;;4.80;0.93;;;12.50;99.90;;;;;;6431260;22;20018;-85
2024/04/18 12:36:02;;;;;;;3.97;0.55;;;12.80;99.90;;;;;;6516187;22;20420;-86
2024/04/18 12:38:28;;;;;;;3.63;1.00;;;12.90;99.90;;;;;;6472863;22;20708;-85
2024/04/18 12:42:02;;;;;;;3.10;0.57;;;13.10;99.90;;;;;;6473049;22;20017;-86
2024/04/18 12:44:59;;;;;;;4.30;0.70;;;13.20;99.90;;;;;;6440722;22;20035;-85
2024/04/18 12:48:04;;;;;;;3.83;0.50;;;13.30;99.90;;;;;;6475675;22;20012;-85
2024/04/18 12:50:32;;;;;;;1.38;0.32;;;13.40;99.90;;;;;;6473876;22;20695;-85
2024/04/18 12:53:03;;;;;;;2.22;0.40;;;13.30;99.90;;;;;;6516289;22;20613;-85
2024/04/18 12:55:33;;;;;;;2.05;0.30;;;13.50;99.90;;;;;;6473695;22;20037;-86
2024/04/18 12:58:01;;;;;;;3.65;0.40;;;13.50;99.90;;;;;;6471903;22;20020;-85
2024/04/18 13:00:30;;;;;;;3.92;0.30;;;13.40;99.90;;;;;;6471361;22;20001;-86
2024/04/18 13:02:58;;;;;;;2.95;0.82;;;13.40;99.90;;;;;;6472821;22;20101;-85
2024/04/18 13:05:24;;;;;;;3.00;0.70;;;13.20;99.90;;;;;;6472356;22;20006;-85
2024/04/18 13:07:50;;;;;;;6.43;0.82;;;13.10;99.90;;;;;;6473527;22;20002;-85
2024/04/18 13:10:19;;;;;;;4.78;0.90;;;13.10;99.90;;;;;;6513803;21;20006;-86
2024/04/18 13:12:45;;;;;;;9.73;1.10;;;12.70;99.90;;;;;;6472284;22;20006;-85
2024/04/18 13:15:10;;;;;;;9.85;0.80;;;12.50;99.90;;;;;;6474439;22;20421;-86
2024/04/18 13:17:36;;;;;;;6.80;0.85;;;12.50;99.90;;;;;;6514931;22;20056;-86
2024/04/18 13:20:02;;;;;;;6.40;0.98;;;12.40;99.90;;;;;;6472125;22;20020;-85
2024/04/18 13:22:29;;;;;;;8.25;1.52;;;12.30;99.90;;;;;;6473908;22;20077;-85
2024/04/18 13:24:54;;;;;;;8.13;1.10;;;12.40;99.90;;;;;;6474124;22;20006;-85
2024/04/18 13:27:23;;;;;;;8.25;1.52;;;12.30;99.90;;;;;;6473239;22;20020;-85
2024/04/18 13:29:49;;;;;;;5.85;0.88;;;12.80;99.90;;;;;;6473929;22;20083;-85
2024/04/18 13:32:15;;;;;;;11.68;1.83;;;12.40;99.90;;;;;;6514755;22;20006;-85
2024/04/18 13:34:41;;;;;;;5.72;0.98;;;13.20;99.90;;;;;;6473642;22;20093;-85
2024/04/18 13:37:07;;;;;;;8.30;0.95;;;12.60;99.90;;;;;;6471388;22;20002;-85